Time,TemperatureF,DewpointF,PressureIn,WindDirection,WindDirectionDegrees,WindSpeedMPH,WindSpeedGustMPH,Humidity,HourlyPrecipIn,Conditions,Clouds,dailyrainin,SoftwareType,DateUTC
2013-05-31 00:10:00,69.7,65.0,30.02,NNE,31,0.0,0.0,85,0.00,,,0.00,weatherlink.com 1.10,2013-05-31 04:10:00,
2013-05-31 00:25:00,69.2,65.0,30.02,NE,45,1.0,1.0,86,0.00,,,0.00,weatherlink.com 1.10,2013-05-31 04:25:00,
2013-05-31 00:40:00,68.8,65.0,30.02,NE,45,0.0,1.0,87,0.00,,,0.00,weatherlink.com 1.10,2013-05-31 04:40:00,
2013-05-31 00:55:00,68.4,65.0,30.01,NE,45,0.0,1.0,88,0.00,,,0.00,weatherlink.com 1.10,2013-05-31 04:55:00,
2013-05-31 01:10:00,68.5,65.0,30.01,SSE,160,1.0,4.0,87,0.00,,,0.00,weatherlink.com 1.10,2013-05-31 05:10:00,
2013-05-31 01:25:00,69.0,65.0,30.00,NE,48,1.0,4.0,87,0.00,,,0.00,weatherlink.com 1.10,2013-05-31 05:25:00,
2013-05-31 01:40:00,69.0,65.0,30.00,West,274,0.0,3.0,86,0.00,,,0.00,weatherlink.com 1.10,2013-05-31 05:40:00,
2013-05-31 01:55:00,69.4,65.0,30.00,East,100,0.0,3.0,86,0.00,,,0.00,weatherlink.com 1.10,2013-05-31 05:55:00,
2013-05-31 02:10:00,70.1,65.0,30.00,South,190,1.0,3.0,85,0.00,,,0.00,weatherlink.com 1.10,2013-05-31 06:10:00,
2013-05-31 02:25:00,70.3,66.0,30.00,East,98,1.0,4.0,85,0.00,,,0.00,weatherlink.com 1.10,2013-05-31 06:25:00,
2013-05-31 02:40:00,70.4,66.0,30.00,SE,142,2.0,3.0,85,0.00,,,0.00,weatherlink.com 1.10,2013-05-31 06:40:00,
2013-05-31 02:56:00,70.6,66.0,29.99,NNW,327,0.0,7.0,85,0.00,,,0.00,weatherlink.com 1.10,2013-05-31 06:56:00,
2013-05-31 03:11:00,70.6,66.0,29.99,ESE,119,0.0,6.0,85,0.00,,,0.00,weatherlink.com 1.10,2013-05-31 07:11:00,
2013-05-31 03:26:00,70.3,66.0,29.98,South,173,2.0,3.0,86,0.00,,,0.00,weatherlink.com 1.10,2013-05-31 07:26:00,
2013-05-31 03:41:00,70.1,66.0,29.98,SE,142,0.0,2.0,86,0.00,,,0.00,weatherlink.com 1.10,2013-05-31 07:41:00,
2013-05-31 03:56:00,69.7,66.0,29.98,SSE,167,0.0,2.0,87,0.00,,,0.00,weatherlink.com 1.10,2013-05-31 07:56:00,
2013-05-31 04:11:00,69.8,66.0,29.98,SSE,160,0.0,6.0,87,0.00,,,0.00,weatherlink.com 1.10,2013-05-31 08:11:00,
2013-05-31 04:26:00,69.7,65.0,29.98,WNW,297,0.0,4.0,86,0.00,,,0.00,weatherlink.com 1.10,2013-05-31 08:26:00,
2013-05-31 04:41:00,69.8,66.0,29.98,NW,313,0.0,3.0,86,0.00,,,0.00,weatherlink.com 1.10,2013-05-31 08:41:00,
2013-05-31 04:56:00,69.8,66.0,29.97,South,184,0.0,7.0,86,0.00,,,0.00,weatherlink.com 1.10,2013-05-31 08:56:00,
2013-05-31 05:11:00,69.7,65.0,29.97,SSW,197,1.0,3.0,86,0.00,,,0.00,weatherlink.com 1.10,2013-05-31 09:11:00,
2013-05-31 05:26:00,69.5,65.0,29.97,SSE,162,0.0,3.0,86,0.00,,,0.00,weatherlink.com 1.10,2013-05-31 09:26:00,
2013-05-31 05:41:00,69.5,65.0,29.97,ESE,122,2.0,7.0,86,0.00,,,0.00,weatherlink.com 1.10,2013-05-31 09:41:00,
2013-05-31 05:56:00,69.4,65.0,29.97,SSE,148,0.0,1.0,86,0.00,,,0.00,weatherlink.com 1.10,2013-05-31 09:56:00,
2013-05-31 06:11:00,69.3,65.0,29.97,SSW,205,0.0,2.0,87,0.00,,,0.00,weatherlink.com 1.10,2013-05-31 10:11:00,
2013-05-31 06:26:00,69.0,65.0,29.97,SSW,200,0.0,3.0,87,0.00,,,0.00,weatherlink.com 1.10,2013-05-31 10:26:00,
2013-05-31 06:41:00,68.9,65.0,29.97,ESE,121,0.0,2.0,88,0.00,,,0.00,weatherlink.com 1.10,2013-05-31 10:41:00,
2013-05-31 06:56:00,69.0,65.0,29.97,NNE,13,0.0,3.0,88,0.00,,,0.00,weatherlink.com 1.10,2013-05-31 10:56:00,
2013-05-31 07:11:00,69.1,65.0,29.97,SSW,203,1.0,9.0,87,0.00,,,0.00,weatherlink.com 1.10,2013-05-31 11:11:00,
2013-05-31 07:26:00,69.7,66.0,29.97,SSW,205,1.0,5.0,87,0.00,,,0.00,weatherlink.com 1.10,2013-05-31 11:26:00,
2013-05-31 07:41:00,70.8,66.0,29.97,South,175,4.0,5.0,85,0.00,,,0.00,weatherlink.com 1.10,2013-05-31 11:41:00,
2013-05-31 07:56:00,71.9,67.0,29.97,SSE,161,4.0,5.0,84,0.00,,,0.00,weatherlink.com 1.10,2013-05-31 11:56:00,
2013-05-31 08:11:00,72.4,67.0,29.97,SSW,211,0.0,9.0,82,0.00,,,0.00,weatherlink.com 1.10,2013-05-31 12:11:00,
2013-05-31 08:26:00,72.8,67.0,29.97,WNW,286,3.0,7.0,82,0.00,,,0.00,weatherlink.com 1.10,2013-05-31 12:26:00,
2013-05-31 08:41:00,73.0,67.0,29.96,ESE,115,1.0,6.0,81,0.00,,,0.00,weatherlink.com 1.10,2013-05-31 12:41:00,
2013-05-31 08:56:00,73.7,68.0,29.96,East,87,5.0,8.0,81,0.00,,,0.00,weatherlink.com 1.10,2013-05-31 12:56:00,
2013-05-31 09:11:00,75.0,68.0,29.96,East,85,1.0,6.0,79,0.00,,,0.00,weatherlink.com 1.10,2013-05-31 13:11:00,
2013-05-31 09:26:00,76.1,68.0,29.96,SW,220,2.0,6.0,76,0.00,,,0.00,weatherlink.com 1.10,2013-05-31 13:26:00,
2013-05-31 09:41:00,76.4,68.0,29.96,SSW,207,4.0,10.0,76,0.00,,,0.00,weatherlink.com 1.10,2013-05-31 13:41:00,
2013-05-31 09:56:00,76.7,68.0,29.96,East,99,1.0,11.0,75,0.00,,,0.00,weatherlink.com 1.10,2013-05-31 13:56:00,
2013-05-31 10:11:00,77.3,68.0,29.96,WSW,240,2.0,6.0,74,0.00,,,0.00,weatherlink.com 1.10,2013-05-31 14:11:00,
2013-05-31 10:26:00,77.6,69.0,29.95,WNW,283,7.0,9.0,75,0.00,,,0.00,weatherlink.com 1.10,2013-05-31 14:26:00,
2013-05-31 10:41:00,78.2,69.0,29.94,NW,308,2.0,7.0,73,0.00,,,0.00,weatherlink.com 1.10,2013-05-31 14:41:00,
2013-05-31 10:56:00,78.8,69.0,29.94,SSW,210,1.0,13.0,72,0.00,,,0.00,weatherlink.com 1.10,2013-05-31 14:56:00,
2013-05-31 11:11:00,78.6,68.0,29.94,North,355,1.0,10.0,71,0.00,,,0.00,weatherlink.com 1.10,2013-05-31 15:11:00,
2013-05-31 11:26:00,78.4,69.0,29.94,NNW,331,1.0,6.0,73,0.00,,,0.00,weatherlink.com 1.10,2013-05-31 15:26:00,
2013-05-31 11:41:00,78.0,68.0,29.95,SE,146,4.0,10.0,71,0.00,,,0.00,weatherlink.com 1.10,2013-05-31 15:41:00,
2013-05-31 11:56:00,76.3,67.0,29.95,WNW,297,2.0,11.0,72,0.00,,,0.00,weatherlink.com 1.10,2013-05-31 15:56:00,
2013-05-31 12:11:00,75.3,68.0,29.96,SSE,167,4.0,8.0,77,0.02,,,0.02,weatherlink.com 1.10,2013-05-31 16:11:00,
2013-05-31 12:26:00,72.4,69.0,29.96,WSW,245,1.0,3.0,88,0.06,,,0.06,weatherlink.com 1.10,2013-05-31 16:26:00,
2013-05-31 12:41:00,72.4,69.0,29.96,NW,311,3.0,3.0,89,0.06,,,0.06,weatherlink.com 1.10,2013-05-31 16:41:00,
2013-05-31 12:56:00,72.4,69.0,29.96,East,101,5.0,5.0,89,0.06,,,0.06,weatherlink.com 1.10,2013-05-31 16:56:00,
2013-05-31 13:11:00,72.7,69.0,29.96,North,5,2.0,4.0,88,0.03,,,0.06,weatherlink.com 1.10,2013-05-31 17:11:00,
2013-05-31 13:26:00,73.1,69.0,29.96,WNW,284,2.0,8.0,86,0.00,,,0.06,weatherlink.com 1.10,2013-05-31 17:26:00,
2013-05-31 13:41:00,73.4,68.0,29.95,West,266,1.0,5.0,84,0.00,,,0.06,weatherlink.com 1.10,2013-05-31 17:41:00,
2013-05-31 13:56:00,73.8,68.0,29.95,SSW,194,0.0,5.0,82,0.00,,,0.06,weatherlink.com 1.10,2013-05-31 17:56:00,
2013-05-31 14:12:00,74.0,68.0,29.95,NW,316,1.0,6.0,82,0.00,,,0.06,weatherlink.com 1.10,2013-05-31 18:12:00,
2013-05-31 14:27:00,73.6,67.0,29.94,SW,224,1.0,7.0,80,0.00,,,0.06,weatherlink.com 1.10,2013-05-31 18:27:00,
2013-05-31 14:42:00,74.0,68.0,29.94,West,279,2.0,8.0,81,0.00,,,0.06,weatherlink.com 1.10,2013-05-31 18:42:00,
2013-05-31 14:57:00,73.6,67.0,29.94,ENE,68,0.0,9.0,80,0.00,,,0.06,weatherlink.com 1.10,2013-05-31 18:57:00,
2013-05-31 15:12:00,73.7,68.0,29.93,NW,326,2.0,9.0,81,0.00,,,0.06,weatherlink.com 1.10,2013-05-31 19:12:00,
2013-05-31 15:27:00,74.1,68.0,29.93,NNW,337,1.0,8.0,81,0.00,,,0.06,weatherlink.com 1.10,2013-05-31 19:27:00,
2013-05-31 15:42:00,74.2,67.0,29.93,NNW,329,2.0,7.0,78,0.00,,,0.06,weatherlink.com 1.10,2013-05-31 19:42:00,
2013-05-31 15:57:00,74.6,68.0,29.93,NNW,340,2.0,7.0,80,0.00,,,0.06,weatherlink.com 1.10,2013-05-31 19:57:00,
2013-05-31 16:12:00,74.8,68.0,29.92,West,279,1.0,4.0,80,0.00,,,0.06,weatherlink.com 1.10,2013-05-31 20:12:00,
2013-05-31 16:27:00,75.0,67.0,29.92,WSW,255,2.0,7.0,76,0.00,,,0.06,weatherlink.com 1.10,2013-05-31 20:27:00,
2013-05-31 16:42:00,74.6,67.0,29.91,WNW,285,0.0,8.0,77,0.00,,,0.06,weatherlink.com 1.10,2013-05-31 20:42:00,
2013-05-31 16:57:00,74.0,66.0,29.90,WNW,282,2.0,3.0,77,0.00,,,0.06,weatherlink.com 1.10,2013-05-31 20:57:00,
2013-05-31 17:12:00,73.7,66.0,29.91,WSW,244,0.0,4.0,78,0.00,,,0.06,weatherlink.com 1.10,2013-05-31 21:12:00,
2013-05-31 17:27:00,75.0,67.0,29.91,SE,137,1.0,2.0,77,0.00,,,0.06,weatherlink.com 1.10,2013-05-31 21:27:00,
2013-05-31 17:42:00,74.9,67.0,29.91,SSW,200,2.0,7.0,76,0.00,,,0.06,weatherlink.com 1.10,2013-05-31 21:42:00,
2013-05-31 17:57:00,74.1,67.0,29.91,WNW,296,0.0,4.0,78,0.00,,,0.06,weatherlink.com 1.10,2013-05-31 21:57:00,
2013-05-31 18:12:00,73.8,67.0,29.91,WNW,291,2.0,4.0,79,0.00,,,0.06,weatherlink.com 1.10,2013-05-31 22:12:00,
2013-05-31 18:27:00,73.6,66.0,29.91,WNW,297,0.0,3.0,78,0.00,,,0.06,weatherlink.com 1.10,2013-05-31 22:27:00,
2013-05-31 18:42:00,73.5,67.0,29.91,WNW,296,0.0,2.0,79,0.00,,,0.06,weatherlink.com 1.10,2013-05-31 22:42:00,
2013-05-31 18:57:00,72.7,67.0,29.91,WNW,285,1.0,4.0,81,0.00,,,0.06,weatherlink.com 1.10,2013-05-31 22:57:00,
2013-05-31 19:12:00,72.3,67.0,29.91,WNW,285,0.0,2.0,82,0.00,,,0.06,weatherlink.com 1.10,2013-05-31 23:12:00,
2013-05-31 19:27:00,72.4,67.0,29.91,NW,318,0.0,2.0,82,0.00,,,0.06,weatherlink.com 1.10,2013-05-31 23:27:00,
2013-05-31 19:42:00,73.0,67.0,29.90,NW,317,0.0,1.0,82,0.00,,,0.06,weatherlink.com 1.10,2013-05-31 23:42:00,
2013-05-31 19:57:00,72.9,66.0,29.90,South,182,4.0,6.0,80,0.00,,,0.06,weatherlink.com 1.10,2013-05-31 23:57:00,
2013-05-31 20:12:00,72.5,67.0,29.89,South,180,1.0,6.0,83,0.00,,,0.06,weatherlink.com 1.10,2013-06-01 00:12:00,
2013-05-31 20:27:00,72.2,67.0,29.88,SSW,200,0.0,5.0,83,0.00,,,0.06,weatherlink.com 1.10,2013-06-01 00:27:00,
2013-05-31 20:42:00,71.7,67.0,29.89,NNW,333,0.0,6.0,84,0.00,,,0.06,weatherlink.com 1.10,2013-06-01 00:42:00,
2013-05-31 20:57:00,71.0,67.0,29.89,East,97,0.0,2.0,86,0.00,,,0.06,weatherlink.com 1.10,2013-06-01 00:57:00,
2013-05-31 21:12:00,70.2,66.0,29.89,West,261,2.0,5.0,87,0.00,,,0.06,weatherlink.com 1.10,2013-06-01 01:12:00,
2013-05-31 21:27:00,69.6,66.0,29.88,SSE,167,3.0,3.0,88,0.00,,,0.06,weatherlink.com 1.10,2013-06-01 01:27:00,
2013-05-31 21:42:00,69.1,66.0,29.89,North,351,1.0,2.0,89,0.00,,,0.06,weatherlink.com 1.10,2013-06-01 01:42:00,
2013-05-31 21:57:00,68.7,66.0,29.90,NNW,327,0.0,3.0,90,0.00,,,0.06,weatherlink.com 1.10,2013-06-01 01:57:00,
2013-05-31 22:12:00,68.4,66.0,29.91,NNW,327,0.0,1.0,91,0.00,,,0.06,weatherlink.com 1.10,2013-06-01 02:12:00,
2013-05-31 22:27:00,68.3,66.0,29.92,SSE,154,0.0,2.0,91,0.00,,,0.06,weatherlink.com 1.10,2013-06-01 02:27:00,
2013-05-31 22:42:00,68.2,66.0,29.91,SE,141,0.0,2.0,91,0.00,,,0.06,weatherlink.com 1.10,2013-06-01 02:42:00,
2013-05-31 22:57:00,68.1,65.0,29.90,South,173,0.0,6.0,91,0.00,,,0.06,weatherlink.com 1.10,2013-06-01 02:57:00,
2013-05-31 23:12:00,67.8,66.0,29.86,ENE,61,4.0,4.0,92,0.00,,,0.06,weatherlink.com 1.10,2013-06-01 03:12:00,
2013-05-31 23:27:00,68.2,66.0,29.86,North,5,1.0,9.0,93,0.00,,,0.06,weatherlink.com 1.10,2013-06-01 03:27:00,
2013-05-31 23:42:00,68.6,67.0,29.87,SSW,210,1.0,10.0,93,0.00,,,0.06,weatherlink.com 1.10,2013-06-01 03:42:00,
2013-05-31 23:57:00,69.0,67.0,29.86,SSW,194,0.0,8.0,92,0.01,,,0.07,weatherlink.com 1.10,2013-06-01 03:57:00,